Jane, Missouri
Current Conditions -  °F | °C
As of 6:15 PM on Saturday 22 Nov 2014 (Local Time) from KVBT Reporting Station
Scattered Clouds Scattered Clouds  
Wind Chill: 54°   Ceiling: Unl
Heat Index: 54°   Visibility: 10mi
Dew Point: 50°   Wind: 7mph
Humidity: 88%   Direction: 140°SE
Pressure: 29.87"   Gusts: 29mph
Location:  36.5706°N, 94.342°W
Report Text: KVBT 230015Z AUTO 14006G25KT 130V200 10SM FEW027 SCT047 SCT060 12/10 A2987 RMK AO1 P0001
Loading
Personal Weather Stations






























Interactive Weather Map New forecast layout! Learn more

10-Day Weather Forecast

Advertisements
Track Severe Weather on mobile